sensor_id;sensor_type;location;lat;lon;timestamp;P1;durP1;ratioP1;P2;durP2;ratioP2
11054;SDS011;5580;50.106;8.702;2023-05-07T00:01:43;4.80;;;4.00;;
11054;SDS011;5580;50.106;8.702;2023-05-07T00:04:08;4.57;;;3.80;;
11054;SDS011;5580;50.106;8.702;2023-05-07T00:06:34;6.07;;;3.73;;
11054;SDS011;5580;50.106;8.702;2023-05-07T00:09:00;8.33;;;3.90;;
11054;SDS011;5580;50.106;8.702;2023-05-07T00:11:26;7.07;;;4.13;;
11054;SDS011;5580;50.106;8.702;2023-05-07T00:13:52;5.00;;;4.00;;
11054;SDS011;5580;50.106;8.702;2023-05-07T00:16:18;4.57;;;3.97;;
11054;SDS011;5580;50.106;8.702;2023-05-07T00:18:43;6.37;;;4.13;;
11054;SDS011;5580;50.106;8.702;2023-05-07T00:21:10;6.37;;;4.10;;
11054;SDS011;5580;50.106;8.702;2023-05-07T00:23:36;4.77;;;3.83;;
11054;SDS011;5580;50.106;8.702;2023-05-07T00:26:01;4.10;;;3.70;;
11054;SDS011;5580;50.106;8.702;2023-05-07T00:28:27;5.13;;;3.83;;
11054;SDS011;5580;50.106;8.702;2023-05-07T00:30:53;5.53;;;4.20;;
11054;SDS011;5580;50.106;8.702;2023-05-07T00:33:18;10.20;;;4.03;;
11054;SDS011;5580;50.106;8.702;2023-05-07T00:35:45;6.07;;;3.90;;
11054;SDS011;5580;50.106;8.702;2023-05-07T00:38:11;6.47;;;4.13;;
11054;SDS011;5580;50.106;8.702;2023-05-07T00:40:36;4.77;;;4.00;;
11054;SDS011;5580;50.106;8.702;2023-05-07T00:43:02;7.20;;;3.87;;
11054;SDS011;5580;50.106;8.702;2023-05-07T00:45:28;5.23;;;4.00;;
11054;SDS011;5580;50.106;8.702;2023-05-07T00:47:55;6.90;;;4.30;;
11054;SDS011;5580;50.106;8.702;2023-05-07T00:50:23;6.80;;;3.90;;
11054;SDS011;5580;50.106;8.702;2023-05-07T00:52:49;5.03;;;3.80;;
11054;SDS011;5580;50.106;8.702;2023-05-07T00:55:15;5.73;;;4.30;;
11054;SDS011;5580;50.106;8.702;2023-05-07T00:57:40;4.50;;;3.73;;
11054;SDS011;5580;50.106;8.702;2023-05-07T01:00:07;7.17;;;4.30;;
11054;SDS011;5580;50.106;8.702;2023-05-07T01:02:35;5.33;;;3.80;;
11054;SDS011;5580;50.106;8.702;2023-05-07T01:05:01;5.23;;;3.93;;
11054;SDS011;5580;50.106;8.702;2023-05-07T01:07:29;5.23;;;4.03;;
11054;SDS011;5580;50.106;8.702;2023-05-07T01:09:56;7.37;;;4.00;;
11054;SDS011;5580;50.106;8.702;2023-05-07T01:12:22;6.77;;;4.13;;
11054;SDS011;5580;50.106;8.702;2023-05-07T01:14:49;5.70;;;4.00;;
11054;SDS011;5580;50.106;8.702;2023-05-07T01:17:15;4.97;;;4.10;;
11054;SDS011;5580;50.106;8.702;2023-05-07T01:19:41;5.10;;;3.80;;
11054;SDS011;5580;50.106;8.702;2023-05-07T01:22:08;5.63;;;4.00;;
11054;SDS011;5580;50.106;8.702;2023-05-07T01:24:36;6.80;;;3.90;;
11054;SDS011;5580;50.106;8.702;2023-05-07T01:27:02;4.63;;;4.07;;
11054;SDS011;5580;50.106;8.702;2023-05-07T01:29:28;4.87;;;3.90;;
11054;SDS011;5580;50.106;8.702;2023-05-07T01:31:54;4.73;;;3.87;;
11054;SDS011;5580;50.106;8.702;2023-05-07T01:34:22;7.57;;;4.50;;
11054;SDS011;5580;50.106;8.702;2023-05-07T01:36:51;5.63;;;4.10;;
11054;SDS011;5580;50.106;8.702;2023-05-07T01:39:18;6.23;;;4.27;;
11054;SDS011;5580;50.106;8.702;2023-05-07T01:41:44;4.77;;;4.00;;
11054;SDS011;5580;50.106;8.702;2023-05-07T01:44:10;5.23;;;4.07;;
11054;SDS011;5580;50.106;8.702;2023-05-07T01:46:38;8.33;;;4.03;;
11054;SDS011;5580;50.106;8.702;2023-05-07T01:49:03;5.93;;;4.07;;
11054;SDS011;5580;50.106;8.702;2023-05-07T01:51:29;4.53;;;4.10;;
11054;SDS011;5580;50.106;8.702;2023-05-07T01:53:56;5.30;;;4.03;;
11054;SDS011;5580;50.106;8.702;2023-05-07T01:56:23;7.43;;;4.03;;
11054;SDS011;5580;50.106;8.702;2023-05-07T01:58:49;6.30;;;4.10;;
11054;SDS011;5580;50.106;8.702;2023-05-07T02:01:16;7.40;;;4.57;;
11054;SDS011;5580;50.106;8.702;2023-05-07T02:03:42;5.37;;;4.17;;
11054;SDS011;5580;50.106;8.702;2023-05-07T02:06:08;5.27;;;3.93;;
11054;SDS011;5580;50.106;8.702;2023-05-07T02:08:34;6.40;;;4.23;;
11054;SDS011;5580;50.106;8.702;2023-05-07T02:11:00;5.33;;;4.40;;
11054;SDS011;5580;50.106;8.702;2023-05-07T02:13:29;7.67;;;4.33;;
11054;SDS011;5580;50.106;8.702;2023-05-07T02:15:56;7.97;;;4.13;;
11054;SDS011;5580;50.106;8.702;2023-05-07T02:18:22;6.50;;;4.30;;
11054;SDS011;5580;50.106;8.702;2023-05-07T02:20:48;6.03;;;4.50;;
11054;SDS011;5580;50.106;8.702;2023-05-07T02:23:13;4.47;;;4.07;;
11054;SDS011;5580;50.106;8.702;2023-05-07T02:25:39;7.17;;;4.20;;
11054;SDS011;5580;50.106;8.702;2023-05-07T02:28:04;7.40;;;4.30;;
11054;SDS011;5580;50.106;8.702;2023-05-07T02:30:30;5.10;;;4.20;;
11054;SDS011;5580;50.106;8.702;2023-05-07T02:32:56;5.87;;;4.50;;
11054;SDS011;5580;50.106;8.702;2023-05-07T02:35:22;6.10;;;4.30;;
11054;SDS011;5580;50.106;8.702;2023-05-07T02:37:49;5.53;;;4.10;;
11054;SDS011;5580;50.106;8.702;2023-05-07T02:40:15;6.40;;;4.30;;
11054;SDS011;5580;50.106;8.702;2023-05-07T02:42:41;5.07;;;4.10;;
11054;SDS011;5580;50.106;8.702;2023-05-07T02:45:06;4.97;;;4.23;;
11054;SDS011;5580;50.106;8.702;2023-05-07T02:47:32;5.80;;;4.50;;
11054;SDS011;5580;50.106;8.702;2023-05-07T02:49:58;7.00;;;4.33;;
11054;SDS011;5580;50.106;8.702;2023-05-07T02:52:23;6.27;;;4.67;;
11054;SDS011;5580;50.106;8.702;2023-05-07T02:54:49;5.37;;;4.30;;
11054;SDS011;5580;50.106;8.702;2023-05-07T02:57:15;7.77;;;4.57;;
11054;SDS011;5580;50.106;8.702;2023-05-07T02:59:41;7.50;;;4.60;;
11054;SDS011;5580;50.106;8.702;2023-05-07T03:02:07;6.93;;;4.53;;
11054;SDS011;5580;50.106;8.702;2023-05-07T03:04:33;6.07;;;4.43;;
11054;SDS011;5580;50.106;8.702;2023-05-07T03:06:58;6.40;;;4.50;;
11054;SDS011;5580;50.106;8.702;2023-05-07T03:09:24;6.53;;;4.60;;
11054;SDS011;5580;50.106;8.702;2023-05-07T03:11:49;7.00;;;4.37;;
11054;SDS011;5580;50.106;8.702;2023-05-07T03:14:15;6.13;;;4.27;;
11054;SDS011;5580;50.106;8.702;2023-05-07T03:16:40;6.97;;;4.50;;
11054;SDS011;5580;50.106;8.702;2023-05-07T03:19:06;6.47;;;4.20;;
11054;SDS011;5580;50.106;8.702;2023-05-07T03:21:32;7.63;;;4.50;;
11054;SDS011;5580;50.106;8.702;2023-05-07T03:23:58;4.60;;;4.03;;
11054;SDS011;5580;50.106;8.702;2023-05-07T03:26:24;4.53;;;4.00;;
11054;SDS011;5580;50.106;8.702;2023-05-07T03:28:50;5.07;;;4.00;;
11054;SDS011;5580;50.106;8.702;2023-05-07T03:31:16;5.63;;;4.10;;
11054;SDS011;5580;50.106;8.702;2023-05-07T03:33:54;5.67;;;4.43;;
11054;SDS011;5580;50.106;8.702;2023-05-07T03:36:22;6.90;;;4.50;;
11054;SDS011;5580;50.106;8.702;2023-05-07T03:38:48;6.40;;;4.10;;
11054;SDS011;5580;50.106;8.702;2023-05-07T03:41:14;6.50;;;4.30;;
11054;SDS011;5580;50.106;8.702;2023-05-07T03:43:40;5.40;;;4.20;;
11054;SDS011;5580;50.106;8.702;2023-05-07T03:46:06;6.03;;;4.30;;
11054;SDS011;5580;50.106;8.702;2023-05-07T03:48:31;7.87;;;4.20;;
11054;SDS011;5580;50.106;8.702;2023-05-07T03:50:57;6.87;;;4.40;;
11054;SDS011;5580;50.106;8.702;2023-05-07T03:53:23;7.07;;;4.23;;
11054;SDS011;5580;50.106;8.702;2023-05-07T03:55:49;8.13;;;4.50;;
11054;SDS011;5580;50.106;8.702;2023-05-07T03:58:15;5.23;;;4.23;;
11054;SDS011;5580;50.106;8.702;2023-05-07T04:00:40;6.27;;;4.30;;
11054;SDS011;5580;50.106;8.702;2023-05-07T04:03:06;5.10;;;4.30;;
11054;SDS011;5580;50.106;8.702;2023-05-07T04:05:32;6.77;;;4.53;;
11054;SDS011;5580;50.106;8.702;2023-05-07T04:07:58;6.33;;;4.40;;
11054;SDS011;5580;50.106;8.702;2023-05-07T04:10:24;5.77;;;4.40;;
11054;SDS011;5580;50.106;8.702;2023-05-07T04:12:50;9.00;;;4.73;;
11054;SDS011;5580;50.106;8.702;2023-05-07T04:15:15;6.20;;;4.23;;
11054;SDS011;5580;50.106;8.702;2023-05-07T04:17:41;5.90;;;4.40;;
11054;SDS011;5580;50.106;8.702;2023-05-07T04:20:08;6.90;;;4.60;;
11054;SDS011;5580;50.106;8.702;2023-05-07T04:22:35;5.77;;;4.50;;
11054;SDS011;5580;50.106;8.702;2023-05-07T04:25:01;7.87;;;4.63;;
11054;SDS011;5580;50.106;8.702;2023-05-07T04:27:27;7.63;;;4.60;;
11054;SDS011;5580;50.106;8.702;2023-05-07T04:29:53;7.83;;;4.60;;
11054;SDS011;5580;50.106;8.702;2023-05-07T04:32:20;6.80;;;4.90;;
11054;SDS011;5580;50.106;8.702;2023-05-07T04:34:46;7.10;;;4.47;;
11054;SDS011;5580;50.106;8.702;2023-05-07T04:37:12;6.30;;;4.50;;
11054;SDS011;5580;50.106;8.702;2023-05-07T04:39:37;5.63;;;4.60;;
11054;SDS011;5580;50.106;8.702;2023-05-07T04:42:03;8.77;;;4.63;;
11054;SDS011;5580;50.106;8.702;2023-05-07T04:44:28;6.93;;;4.60;;
11054;SDS011;5580;50.106;8.702;2023-05-07T04:46:56;7.63;;;5.00;;
11054;SDS011;5580;50.106;8.702;2023-05-07T04:49:21;6.67;;;4.80;;
11054;SDS011;5580;50.106;8.702;2023-05-07T04:51:47;7.00;;;4.70;;
11054;SDS011;5580;50.106;8.702;2023-05-07T04:54:13;6.07;;;4.40;;
11054;SDS011;5580;50.106;8.702;2023-05-07T04:56:38;6.17;;;4.60;;
11054;SDS011;5580;50.106;8.702;2023-05-07T04:59:04;5.07;;;4.50;;
11054;SDS011;5580;50.106;8.702;2023-05-07T05:01:30;8.20;;;4.60;;
11054;SDS011;5580;50.106;8.702;2023-05-07T05:03:56;6.23;;;4.70;;
11054;SDS011;5580;50.106;8.702;2023-05-07T05:06:22;5.70;;;4.27;;
11054;SDS011;5580;50.106;8.702;2023-05-07T05:08:47;6.13;;;4.27;;
11054;SDS011;5580;50.106;8.702;2023-05-07T05:11:13;10.50;;;4.93;;
11054;SDS011;5580;50.106;8.702;2023-05-07T05:13:39;6.10;;;4.87;;
11054;SDS011;5580;50.106;8.702;2023-05-07T05:16:05;8.60;;;5.00;;
11054;SDS011;5580;50.106;8.702;2023-05-07T05:18:31;7.77;;;4.90;;
11054;SDS011;5580;50.106;8.702;2023-05-07T05:20:56;7.47;;;5.00;;
11054;SDS011;5580;50.106;8.702;2023-05-07T05:23:22;8.20;;;4.60;;
11054;SDS011;5580;50.106;8.702;2023-05-07T05:25:47;8.47;;;4.83;;
11054;SDS011;5580;50.106;8.702;2023-05-07T05:28:13;6.57;;;4.70;;
11054;SDS011;5580;50.106;8.702;2023-05-07T05:30:39;8.60;;;5.10;;
11054;SDS011;5580;50.106;8.702;2023-05-07T05:33:04;8.10;;;5.10;;
11054;SDS011;5580;50.106;8.702;2023-05-07T05:35:30;10.10;;;5.00;;
11054;SDS011;5580;50.106;8.702;2023-05-07T05:37:56;7.27;;;4.97;;
11054;SDS011;5580;50.106;8.702;2023-05-07T05:40:22;7.27;;;5.20;;
11054;SDS011;5580;50.106;8.702;2023-05-07T05:42:47;6.17;;;4.60;;
11054;SDS011;5580;50.106;8.702;2023-05-07T05:45:13;6.57;;;4.90;;
11054;SDS011;5580;50.106;8.702;2023-05-07T05:47:38;7.60;;;5.13;;
11054;SDS011;5580;50.106;8.702;2023-05-07T05:50:05;7.53;;;5.20;;
11054;SDS011;5580;50.106;8.702;2023-05-07T05:52:31;6.27;;;4.90;;
11054;SDS011;5580;50.106;8.702;2023-05-07T05:54:57;6.10;;;5.00;;
11054;SDS011;5580;50.106;8.702;2023-05-07T05:57:22;7.37;;;5.20;;
11054;SDS011;5580;50.106;8.702;2023-05-07T05:59:48;9.53;;;5.60;;
11054;SDS011;5580;50.106;8.702;2023-05-07T06:02:14;6.47;;;4.87;;
11054;SDS011;5580;50.106;8.702;2023-05-07T06:04:39;8.57;;;5.10;;
11054;SDS011;5580;50.106;8.702;2023-05-07T06:07:05;6.27;;;5.10;;
11054;SDS011;5580;50.106;8.702;2023-05-07T06:09:31;8.93;;;5.37;;
11054;SDS011;5580;50.106;8.702;2023-05-07T06:11:56;9.30;;;5.23;;
11054;SDS011;5580;50.106;8.702;2023-05-07T06:14:22;6.57;;;4.73;;
11054;SDS011;5580;50.106;8.702;2023-05-07T06:16:47;7.57;;;5.30;;
11054;SDS011;5580;50.106;8.702;2023-05-07T06:19:13;6.53;;;4.90;;
11054;SDS011;5580;50.106;8.702;2023-05-07T06:21:39;8.20;;;5.60;;
11054;SDS011;5580;50.106;8.702;2023-05-07T06:24:05;8.50;;;5.40;;
11054;SDS011;5580;50.106;8.702;2023-05-07T06:26:31;5.93;;;5.10;;
11054;SDS011;5580;50.106;8.702;2023-05-07T06:28:56;9.13;;;5.70;;
11054;SDS011;5580;50.106;8.702;2023-05-07T06:31:22;7.67;;;5.53;;
11054;SDS011;5580;50.106;8.702;2023-05-07T06:33:48;8.30;;;5.40;;
11054;SDS011;5580;50.106;8.702;2023-05-07T06:36:14;8.50;;;5.47;;
11054;SDS011;5580;50.106;8.702;2023-05-07T06:38:40;7.90;;;5.47;;
11054;SDS011;5580;50.106;8.702;2023-05-07T06:41:06;8.10;;;5.77;;
11054;SDS011;5580;50.106;8.702;2023-05-07T06:43:32;10.97;;;5.50;;
11054;SDS011;5580;50.106;8.702;2023-05-07T06:45:57;11.00;;;5.70;;
11054;SDS011;5580;50.106;8.702;2023-05-07T06:48:23;7.27;;;5.50;;
11054;SDS011;5580;50.106;8.702;2023-05-07T06:50:48;9.80;;;5.90;;
11054;SDS011;5580;50.106;8.702;2023-05-07T06:53:14;8.00;;;5.33;;
11054;SDS011;5580;50.106;8.702;2023-05-07T06:55:40;9.00;;;5.73;;
11054;SDS011;5580;50.106;8.702;2023-05-07T06:58:06;9.57;;;6.00;;
11054;SDS011;5580;50.106;8.702;2023-05-07T07:00:32;8.03;;;5.53;;
11054;SDS011;5580;50.106;8.702;2023-05-07T07:02:57;11.60;;;6.07;;
11054;SDS011;5580;50.106;8.702;2023-05-07T07:05:24;7.90;;;5.70;;
11054;SDS011;5580;50.106;8.702;2023-05-07T07:07:50;8.63;;;6.00;;
11054;SDS011;5580;50.106;8.702;2023-05-07T07:10:18;8.90;;;6.37;;
11054;SDS011;5580;50.106;8.702;2023-05-07T07:12:44;8.40;;;6.00;;
11054;SDS011;5580;50.106;8.702;2023-05-07T07:15:10;9.40;;;6.00;;
11054;SDS011;5580;50.106;8.702;2023-05-07T07:17:36;7.57;;;5.90;;
11054;SDS011;5580;50.106;8.702;2023-05-07T07:20:02;8.00;;;5.57;;
11054;SDS011;5580;50.106;8.702;2023-05-07T07:22:28;8.60;;;6.03;;
11054;SDS011;5580;50.106;8.702;2023-05-07T07:24:54;8.00;;;6.00;;
11054;SDS011;5580;50.106;8.702;2023-05-07T07:27:19;8.43;;;6.23;;
11054;SDS011;5580;50.106;8.702;2023-05-07T07:29:45;8.60;;;5.77;;
11054;SDS011;5580;50.106;8.702;2023-05-07T07:32:10;8.47;;;5.77;;
11054;SDS011;5580;50.106;8.702;2023-05-07T07:34:36;8.00;;;5.90;;
11054;SDS011;5580;50.106;8.702;2023-05-07T07:37:01;7.97;;;6.10;;
11054;SDS011;5580;50.106;8.702;2023-05-07T07:39:30;7.80;;;5.73;;
11054;SDS011;5580;50.106;8.702;2023-05-07T07:41:56;7.73;;;5.70;;
11054;SDS011;5580;50.106;8.702;2023-05-07T07:44:22;8.20;;;5.87;;
11054;SDS011;5580;50.106;8.702;2023-05-07T07:46:47;7.67;;;5.83;;
11054;SDS011;5580;50.106;8.702;2023-05-07T07:49:13;7.60;;;5.80;;
11054;SDS011;5580;50.106;8.702;2023-05-07T07:51:39;8.77;;;5.73;;
11054;SDS011;5580;50.106;8.702;2023-05-07T07:54:04;9.83;;;6.17;;
11054;SDS011;5580;50.106;8.702;2023-05-07T07:56:31;8.33;;;6.30;;
11054;SDS011;5580;50.106;8.702;2023-05-07T07:58:58;8.53;;;5.73;;
11054;SDS011;5580;50.106;8.702;2023-05-07T08:01:24;9.03;;;6.20;;
11054;SDS011;5580;50.106;8.702;2023-05-07T08:03:49;12.33;;;6.70;;
11054;SDS011;5580;50.106;8.702;2023-05-07T08:06:15;9.03;;;6.10;;
11054;SDS011;5580;50.106;8.702;2023-05-07T08:08:41;7.43;;;6.07;;
11054;SDS011;5580;50.106;8.702;2023-05-07T08:11:06;8.70;;;6.10;;
11054;SDS011;5580;50.106;8.702;2023-05-07T08:13:32;9.77;;;6.67;;
11054;SDS011;5580;50.106;8.702;2023-05-07T08:15:57;8.53;;;6.20;;
11054;SDS011;5580;50.106;8.702;2023-05-07T08:18:23;7.07;;;6.03;;
11054;SDS011;5580;50.106;8.702;2023-05-07T08:20:50;8.93;;;5.80;;
11054;SDS011;5580;50.106;8.702;2023-05-07T08:23:16;10.03;;;6.30;;
11054;SDS011;5580;50.106;8.702;2023-05-07T08:25:41;7.67;;;6.10;;
11054;SDS011;5580;50.106;8.702;2023-05-07T08:28:09;8.57;;;6.00;;
11054;SDS011;5580;50.106;8.702;2023-05-07T08:30:35;7.77;;;6.07;;
11054;SDS011;5580;50.106;8.702;2023-05-07T08:33:01;8.83;;;6.37;;
11054;SDS011;5580;50.106;8.702;2023-05-07T08:35:26;8.97;;;6.43;;
11054;SDS011;5580;50.106;8.702;2023-05-07T08:37:52;8.33;;;6.17;;
11054;SDS011;5580;50.106;8.702;2023-05-07T08:40:18;10.27;;;6.50;;
11054;SDS011;5580;50.106;8.702;2023-05-07T08:42:45;8.80;;;6.53;;
11054;SDS011;5580;50.106;8.702;2023-05-07T08:45:13;9.97;;;6.33;;
11054;SDS011;5580;50.106;8.702;2023-05-07T08:47:42;9.20;;;6.10;;
11054;SDS011;5580;50.106;8.702;2023-05-07T08:50:10;8.07;;;6.00;;
11054;SDS011;5580;50.106;8.702;2023-05-07T08:52:36;9.20;;;6.33;;
11054;SDS011;5580;50.106;8.702;2023-05-07T08:55:02;9.90;;;6.40;;
11054;SDS011;5580;50.106;8.702;2023-05-07T08:57:28;8.77;;;6.33;;
11054;SDS011;5580;50.106;8.702;2023-05-07T08:59:54;10.20;;;6.30;;
11054;SDS011;5580;50.106;8.702;2023-05-07T09:02:20;9.87;;;6.33;;
11054;SDS011;5580;50.106;8.702;2023-05-07T09:04:45;7.13;;;5.83;;
11054;SDS011;5580;50.106;8.702;2023-05-07T09:07:11;7.23;;;6.13;;
11054;SDS011;5580;50.106;8.702;2023-05-07T09:09:37;10.93;;;6.77;;
11054;SDS011;5580;50.106;8.702;2023-05-07T09:12:02;8.60;;;6.67;;
11054;SDS011;5580;50.106;8.702;2023-05-07T09:14:28;9.63;;;6.37;;
11054;SDS011;5580;50.106;8.702;2023-05-07T09:16:55;9.43;;;6.50;;
11054;SDS011;5580;50.106;8.702;2023-05-07T09:19:25;8.67;;;6.30;;
11054;SDS011;5580;50.106;8.702;2023-05-07T09:22:00;9.97;;;6.47;;
11054;SDS011;5580;50.106;8.702;2023-05-07T09:24:27;12.93;;;7.20;;
11054;SDS011;5580;50.106;8.702;2023-05-07T09:26:57;10.10;;;6.50;;
11054;SDS011;5580;50.106;8.702;2023-05-07T09:29:23;10.53;;;6.40;;
11054;SDS011;5580;50.106;8.702;2023-05-07T09:31:48;9.87;;;6.63;;
11054;SDS011;5580;50.106;8.702;2023-05-07T09:34:14;10.47;;;6.50;;
11054;SDS011;5580;50.106;8.702;2023-05-07T09:36:39;9.73;;;6.40;;
11054;SDS011;5580;50.106;8.702;2023-05-07T09:39:05;9.10;;;6.53;;
11054;SDS011;5580;50.106;8.702;2023-05-07T09:41:30;7.93;;;6.23;;
11054;SDS011;5580;50.106;8.702;2023-05-07T09:43:57;9.43;;;6.90;;
11054;SDS011;5580;50.106;8.702;2023-05-07T09:46:30;9.80;;;6.53;;
11054;SDS011;5580;50.106;8.702;2023-05-07T09:48:59;10.27;;;6.80;;
11054;SDS011;5580;50.106;8.702;2023-05-07T09:54:01;9.20;;;6.63;;
11054;SDS011;5580;50.106;8.702;2023-05-07T09:56:29;10.03;;;6.70;;
11054;SDS011;5580;50.106;8.702;2023-05-07T09:58:56;11.07;;;6.83;;
11054;SDS011;5580;50.106;8.702;2023-05-07T10:01:25;7.90;;;6.53;;
11054;SDS011;5580;50.106;8.702;2023-05-07T10:03:52;10.83;;;6.77;;
11054;SDS011;5580;50.106;8.702;2023-05-07T10:06:19;10.40;;;6.70;;
11054;SDS011;5580;50.106;8.702;2023-05-07T10:08:45;9.23;;;6.53;;
11054;SDS011;5580;50.106;8.702;2023-05-07T10:11:13;9.97;;;6.73;;
11054;SDS011;5580;50.106;8.702;2023-05-07T10:13:40;9.00;;;6.60;;
11054;SDS011;5580;50.106;8.702;2023-05-07T10:16:07;9.53;;;6.73;;
11054;SDS011;5580;50.106;8.702;2023-05-07T10:18:33;8.57;;;6.53;;
11054;SDS011;5580;50.106;8.702;2023-05-07T10:21:02;9.40;;;6.90;;
11054;SDS011;5580;50.106;8.702;2023-05-07T10:23:33;9.37;;;6.63;;
11054;SDS011;5580;50.106;8.702;2023-05-07T10:25:59;8.43;;;6.43;;
11054;SDS011;5580;50.106;8.702;2023-05-07T10:28:29;10.90;;;6.43;;
11054;SDS011;5580;50.106;8.702;2023-05-07T10:31:03;10.40;;;6.30;;
11054;SDS011;5580;50.106;8.702;2023-05-07T10:33:39;11.83;;;6.50;;
11054;SDS011;5580;50.106;8.702;2023-05-07T10:36:06;9.00;;;6.80;;
11054;SDS011;5580;50.106;8.702;2023-05-07T10:38:32;9.90;;;6.80;;
11054;SDS011;5580;50.106;8.702;2023-05-07T10:40:58;10.77;;;6.40;;
11054;SDS011;5580;50.106;8.702;2023-05-07T10:43:24;8.23;;;6.50;;
11054;SDS011;5580;50.106;8.702;2023-05-07T10:51:27;9.23;;;6.30;;
11054;SDS011;5580;50.106;8.702;2023-05-07T10:56:39;7.03;;;5.30;;
11054;SDS011;5580;50.106;8.702;2023-05-07T11:01:49;7.57;;;5.10;;
11054;SDS011;5580;50.106;8.702;2023-05-07T11:04:18;8.67;;;5.20;;
11054;SDS011;5580;50.106;8.702;2023-05-07T11:15:11;9.07;;;5.63;;
11054;SDS011;5580;50.106;8.702;2023-05-07T11:17:53;7.57;;;5.87;;
11054;SDS011;5580;50.106;8.702;2023-05-07T11:28:36;8.27;;;5.00;;
11054;SDS011;5580;50.106;8.702;2023-05-07T11:31:03;6.00;;;4.77;;
11054;SDS011;5580;50.106;8.702;2023-05-07T11:33:29;6.10;;;4.80;;
11054;SDS011;5580;50.106;8.702;2023-05-07T11:35:56;6.20;;;4.50;;
11054;SDS011;5580;50.106;8.702;2023-05-07T11:38:23;7.63;;;4.70;;
11054;SDS011;5580;50.106;8.702;2023-05-07T11:40:53;5.77;;;4.70;;
11054;SDS011;5580;50.106;8.702;2023-05-07T11:43:23;6.40;;;4.60;;
11054;SDS011;5580;50.106;8.702;2023-05-07T11:45:49;6.57;;;4.50;;
11054;SDS011;5580;50.106;8.702;2023-05-07T11:48:15;6.90;;;4.80;;
11054;SDS011;5580;50.106;8.702;2023-05-07T11:53:27;6.13;;;4.60;;
11054;SDS011;5580;50.106;8.702;2023-05-07T11:55:59;7.97;;;4.53;;
11054;SDS011;5580;50.106;8.702;2023-05-07T11:58:25;6.73;;;4.47;;
11054;SDS011;5580;50.106;8.702;2023-05-07T12:00:51;6.10;;;4.63;;
11054;SDS011;5580;50.106;8.702;2023-05-07T12:03:18;6.60;;;4.57;;
11054;SDS011;5580;50.106;8.702;2023-05-07T12:05:44;5.40;;;4.53;;
11054;SDS011;5580;50.106;8.702;2023-05-07T12:08:13;6.27;;;4.53;;
11054;SDS011;5580;50.106;8.702;2023-05-07T12:10:43;7.67;;;4.67;;
11054;SDS011;5580;50.106;8.702;2023-05-07T12:13:15;7.20;;;4.60;;
11054;SDS011;5580;50.106;8.702;2023-05-07T12:15:46;7.97;;;4.63;;
11054;SDS011;5580;50.106;8.702;2023-05-07T12:18:15;6.03;;;4.33;;
11054;SDS011;5580;50.106;8.702;2023-05-07T12:20:40;5.13;;;4.27;;
11054;SDS011;5580;50.106;8.702;2023-05-07T12:23:06;7.73;;;4.20;;
11054;SDS011;5580;50.106;8.702;2023-05-07T12:25:39;5.90;;;4.33;;
11054;SDS011;5580;50.106;8.702;2023-05-07T12:28:08;6.97;;;4.10;;
11054;SDS011;5580;50.106;8.702;2023-05-07T12:30:38;5.90;;;4.20;;
11054;SDS011;5580;50.106;8.702;2023-05-07T12:33:04;8.67;;;4.53;;
11054;SDS011;5580;50.106;8.702;2023-05-07T12:35:30;5.43;;;4.13;;
11054;SDS011;5580;50.106;8.702;2023-05-07T12:37:58;6.43;;;4.50;;
11054;SDS011;5580;50.106;8.702;2023-05-07T12:40:25;6.80;;;4.20;;
11054;SDS011;5580;50.106;8.702;2023-05-07T12:43:04;4.50;;;4.10;;
11054;SDS011;5580;50.106;8.702;2023-05-07T12:45:30;4.80;;;4.20;;
11054;SDS011;5580;50.106;8.702;2023-05-07T12:47:56;4.40;;;4.00;;
11054;SDS011;5580;50.106;8.702;2023-05-07T12:50:26;6.67;;;4.00;;
11054;SDS011;5580;50.106;8.702;2023-05-07T12:52:55;4.50;;;4.10;;
11054;SDS011;5580;50.106;8.702;2023-05-07T12:55:21;8.77;;;4.37;;
11054;SDS011;5580;50.106;8.702;2023-05-07T12:57:49;4.93;;;4.10;;
11054;SDS011;5580;50.106;8.702;2023-05-07T13:00:16;4.43;;;4.00;;
11054;SDS011;5580;50.106;8.702;2023-05-07T13:02:42;6.67;;;3.90;;
11054;SDS011;5580;50.106;8.702;2023-05-07T13:05:12;6.90;;;4.10;;
11054;SDS011;5580;50.106;8.702;2023-05-07T13:07:37;6.50;;;3.90;;
11054;SDS011;5580;50.106;8.702;2023-05-07T13:10:04;4.90;;;4.10;;
11054;SDS011;5580;50.106;8.702;2023-05-07T13:12:29;5.43;;;4.40;;
11054;SDS011;5580;50.106;8.702;2023-05-07T13:14:55;5.73;;;4.37;;
11054;SDS011;5580;50.106;8.702;2023-05-07T13:17:21;4.53;;;4.10;;
11054;SDS011;5580;50.106;8.702;2023-05-07T13:19:46;6.53;;;3.90;;
11054;SDS011;5580;50.106;8.702;2023-05-07T13:22:12;4.50;;;4.10;;
11054;SDS011;5580;50.106;8.702;2023-05-07T13:24:37;5.83;;;4.20;;
11054;SDS011;5580;50.106;8.702;2023-05-07T13:27:06;4.40;;;4.00;;
11054;SDS011;5580;50.106;8.702;2023-05-07T13:29:32;4.30;;;3.90;;
11054;SDS011;5580;50.106;8.702;2023-05-07T13:31:57;7.53;;;4.27;;
11054;SDS011;5580;50.106;8.702;2023-05-07T13:34:23;5.13;;;4.03;;
11054;SDS011;5580;50.106;8.702;2023-05-07T13:36:48;5.83;;;4.20;;
11054;SDS011;5580;50.106;8.702;2023-05-07T13:39:14;6.67;;;4.57;;
11054;SDS011;5580;50.106;8.702;2023-05-07T13:41:40;5.20;;;4.70;;
11054;SDS011;5580;50.106;8.702;2023-05-07T13:44:06;6.77;;;4.80;;
11054;SDS011;5580;50.106;8.702;2023-05-07T13:46:31;7.70;;;5.00;;
11054;SDS011;5580;50.106;8.702;2023-05-07T13:48:57;6.20;;;4.60;;
11054;SDS011;5580;50.106;8.702;2023-05-07T13:51:22;5.87;;;4.70;;
11054;SDS011;5580;50.106;8.702;2023-05-07T13:53:48;5.50;;;4.40;;
11054;SDS011;5580;50.106;8.702;2023-05-07T13:56:14;8.00;;;4.90;;
11054;SDS011;5580;50.106;8.702;2023-05-07T13:58:40;6.77;;;4.57;;
11054;SDS011;5580;50.106;8.702;2023-05-07T14:01:05;5.53;;;4.83;;
11054;SDS011;5580;50.106;8.702;2023-05-07T14:03:31;7.63;;;5.03;;
11054;SDS011;5580;50.106;8.702;2023-05-07T14:05:58;6.23;;;4.70;;
11054;SDS011;5580;50.106;8.702;2023-05-07T14:08:26;5.77;;;4.63;;
11054;SDS011;5580;50.106;8.702;2023-05-07T14:10:52;5.00;;;4.50;;
11054;SDS011;5580;50.106;8.702;2023-05-07T14:13:17;6.67;;;4.93;;
11054;SDS011;5580;50.106;8.702;2023-05-07T14:15:43;5.40;;;4.70;;
11054;SDS011;5580;50.106;8.702;2023-05-07T14:18:11;6.03;;;4.80;;
11054;SDS011;5580;50.106;8.702;2023-05-07T14:20:37;5.87;;;4.57;;
11054;SDS011;5580;50.106;8.702;2023-05-07T14:23:03;6.97;;;4.73;;
11054;SDS011;5580;50.106;8.702;2023-05-07T14:25:29;6.23;;;4.40;;
11054;SDS011;5580;50.106;8.702;2023-05-07T14:27:54;5.47;;;4.40;;
11054;SDS011;5580;50.106;8.702;2023-05-07T14:30:20;4.87;;;4.33;;
11054;SDS011;5580;50.106;8.702;2023-05-07T14:32:49;7.73;;;4.77;;
11054;SDS011;5580;50.106;8.702;2023-05-07T14:35:15;5.53;;;4.80;;
11054;SDS011;5580;50.106;8.702;2023-05-07T14:37:40;5.30;;;4.50;;
11054;SDS011;5580;50.106;8.702;2023-05-07T14:40:06;9.03;;;4.90;;
11054;SDS011;5580;50.106;8.702;2023-05-07T14:42:32;6.70;;;4.87;;
11054;SDS011;5580;50.106;8.702;2023-05-07T14:44:57;6.53;;;4.90;;
11054;SDS011;5580;50.106;8.702;2023-05-07T14:47:23;5.33;;;4.70;;
11054;SDS011;5580;50.106;8.702;2023-05-07T14:49:49;6.40;;;5.03;;
11054;SDS011;5580;50.106;8.702;2023-05-07T14:52:14;5.97;;;4.83;;
11054;SDS011;5580;50.106;8.702;2023-05-07T14:54:40;7.57;;;4.90;;
11054;SDS011;5580;50.106;8.702;2023-05-07T14:57:08;6.07;;;5.00;;
11054;SDS011;5580;50.106;8.702;2023-05-07T14:59:35;6.83;;;4.70;;
11054;SDS011;5580;50.106;8.702;2023-05-07T15:02:02;6.50;;;4.93;;
11054;SDS011;5580;50.106;8.702;2023-05-07T15:04:28;7.20;;;4.80;;
11054;SDS011;5580;50.106;8.702;2023-05-07T15:06:53;6.00;;;5.03;;
11054;SDS011;5580;50.106;8.702;2023-05-07T15:09:19;7.20;;;4.87;;
11054;SDS011;5580;50.106;8.702;2023-05-07T15:11:44;6.00;;;4.67;;
11054;SDS011;5580;50.106;8.702;2023-05-07T15:14:10;4.80;;;4.27;;
11054;SDS011;5580;50.106;8.702;2023-05-07T15:16:36;5.10;;;4.37;;
11054;SDS011;5580;50.106;8.702;2023-05-07T15:19:01;5.33;;;4.60;;
11054;SDS011;5580;50.106;8.702;2023-05-07T15:21:27;6.73;;;4.43;;
11054;SDS011;5580;50.106;8.702;2023-05-07T15:23:52;6.87;;;4.33;;
11054;SDS011;5580;50.106;8.702;2023-05-07T15:26:18;7.57;;;4.57;;
11054;SDS011;5580;50.106;8.702;2023-05-07T15:28:45;5.10;;;4.60;;